Terminal Aerodrome Forecast
Issued by NWS

Home | Current Version | Previous Version | Text Only | Print | Product List | Glossary On
Versions: 1 2 3 4 5 6 7 8 9 10 11 12 13 14 15 16 17 18 19 20 21 22 23 24 25 26
000
FTUS41 KBTV 241141
TAFMSS
TAF
KMSS 241141Z 2412/2512 06014G24KT 6SM -FZRA BR OVC035
      TEMPO 2412/2416 4SM -FZRAPL BR OVC020
     FM241600 05014G24KT 3SM -FZRAPL BR OVC015
     FM250000 03009KT 3SM -SNPL BR OVC009=

USA.gov is the U.S. government's official web portal to all federal, state and local government web resources and services.